CDT,Max TemperatureF,Mean TemperatureF,Min TemperatureF,Max Dew PointF,MeanDew PointF,Min DewpointF,Max Humidity, Mean Humidity, Min Humidity, Max Sea Level PressureIn, Mean Sea Level PressureIn, Min Sea Level PressureIn, Max VisibilityMiles, Mean VisibilityMiles, Min VisibilityMiles, Max Wind SpeedMPH, Mean Wind SpeedMPH, Max Gust SpeedMPH,PrecipitationIn, CloudCover, Events, WindDirDegrees
2013-7-1,80,73,66,68,65,63,100,83,61,29.94,29.88,29.83,10,10,8,13,6,,0.00,5,,326
2013-7-2,84,73,62,66,64,63,100,80,48,30.05,29.98,29.93,10,10,10,12,2,,0.00,2,,302
2013-7-3,84,72,60,66,64,61,100,80,51,30.11,30.06,30.03,10,10,5,7,1,,0.00,2,,349
2013-7-4,89,76,64,72,67,63,100,79,52,30.05,30.02,29.96,10,10,10,9,1,,0.00,2,,43
2013-7-5,87,78,68,73,70,64,100,87,55,30.08,30.03,29.98,10,9,2,7,1,,0.00,5,,103
2013-7-6,87,76,64,73,69,63,100,83,55,30.07,30.03,29.97,10,10,6,6,1,,0.00,4,,128
2013-7-7,89,79,69,75,72,70,100,85,55,30.10,30.06,30.03,10,10,9,6,1,,0.00,2,,144
2013-7-8,91,80,69,79,74,70,100,86,55,30.14,30.10,30.06,10,9,6,6,1,,0.00,2,,121
2013-7-9,95,84,73,75,74,72,100,77,47,30.13,30.08,30.01,10,10,10,9,2,,0.00,1,,212
2013-7-10,98,88,77,79,75,72,94,71,50,30.05,29.99,29.89,10,10,4,8,2,,0.00,4,Rain,231
2013-7-11,93,83,73,79,73,64,100,78,52,29.99,29.94,29.92,10,10,9,13,2,,0.00,2,,14
2013-7-12,87,76,66,66,63,61,83,66,46,30.04,30.00,29.97,10,10,9,12,5,,0.00,0,,22
2013-7-13,86,76,66,64,62,61,83,65,43,30.04,30.01,29.97,10,10,10,9,3,,0.00,1,,29
2013-7-14,89,78,66,73,68,63,100,79,55,30.09,30.03,29.98,10,10,10,9,3,,0.00,3,,77
2013-7-15,89,81,73,75,73,72,100,85,59,30.20,30.14,30.09,10,10,10,9,3,,0.00,5,,106
2013-7-16,93,83,73,73,72,72,94,78,49,30.27,30.23,30.20,10,10,10,7,2,,0.00,1,,82
2013-7-17,96,84,71,79,73,72,100,78,44,30.31,30.25,30.17,10,10,9,6,1,,0.00,2,,21
2013-7-18,95,83,71,77,74,70,100,86,53,30.19,30.13,30.04,10,9,2,9,1,37,0.00,5,Rain,43
2013-7-19,91,81,71,75,73,72,100,85,55,30.09,30.03,29.95,10,5,0,8,1,,0.00,6,Fog,172
2013-7-20,91,81,71,75,74,72,100,80,59,29.98,29.94,29.85,10,10,10,9,2,,0.00,2,,211
2013-7-21,93,82,71,77,73,72,100,80,49,29.97,29.93,29.89,10,10,7,15,3,,0.00,2,,216
2013-7-22,89,80,71,79,75,70,100,84,62,29.96,29.90,29.86,10,10,2,15,6,,0.00,5,,211
2013-7-23,91,80,69,81,75,70,100,87,55,30.00,29.89,29.83,10,10,5,12,2,,0.00,4,Rain,251
2013-7-24,86,80,71,77,73,68,100,86,66,29.98,29.90,29.87,10,10,8,9,3,,0.00,4,,344
2013-7-25,82,73,64,66,64,63,94,77,54,30.08,30.04,29.98,10,10,10,12,4,,0.00,2,,360
2013-7-26,84,73,62,70,66,61,100,85,54,30.08,30.05,29.98,10,10,9,6,1,,0.00,4,,314
2013-7-27,87,79,71,72,70,66,100,83,55,30.02,29.97,29.91,10,10,10,8,3,,0.00,6,,321
2013-7-28,80,73,66,66,62,61,88,74,51,30.08,30.02,29.97,10,10,10,7,3,,0.00,3,,49
2013-7-29,87,76,66,70,66,63,94,75,54,30.16,30.11,30.07,10,10,10,6,1,,0.00,2,,91
2013-7-30,84,78,71,77,71,66,100,86,70,30.13,30.09,30.03,10,10,6,6,1,,0.00,5,,137
2013-7-31,89,82,75,79,75,73,100,89,70,30.05,30.00,29.93,10,9,3,10,2,,0.00,5,Rain,239